Terminal Aerodrome Forecast
Issued by NWS Charleston, WV

Current Version | Previous Version | Graphics & Text | Print | Product List | Glossary On
Versions: 1 2 3 4 5 6 7 8 9 10 11 12 13 14 15 16 17 18 19 20 21 22 23
000
FTUS41 KRLX 011737
TAFPKB
TAF
KPKB 011737Z 0118/0218 VRB04KT P6SM SCT035
     FM020700 00000KT 4SM BR SCT045
     FM020800 00000KT 1/4SM FG VV001
     FM021300 00000KT 3SM BR SCT050
     FM021330 00000KT P6SM SCT035=

USA.gov is the U.S. government's official web portal to all federal, state and local government web resources and services.